createdAt,value
2023-02-13T00:01:25.482Z,6.30
2023-02-13T00:05:29.917Z,6.47
2023-02-13T00:09:32.957Z,6.33
2023-02-13T00:13:36.562Z,6.29
2023-02-13T00:17:39.689Z,6.28
2023-02-13T00:21:44.057Z,6.18
2023-02-13T00:25:47.079Z,6.07
2023-02-13T00:29:50.110Z,6.15
2023-02-13T00:33:53.212Z,6.23
2023-02-13T00:37:57.659Z,6.14
2023-02-13T00:42:00.748Z,6.13
2023-02-13T00:46:04.225Z,6.15
2023-02-13T00:50:08.225Z,6.11
2023-02-13T00:54:14.268Z,6.27
2023-02-13T00:58:18.769Z,6.13
2023-02-13T01:02:21.826Z,5.94
2023-02-13T01:06:24.905Z,5.92
2023-02-13T01:10:29.928Z,5.96
2023-02-13T01:14:33.004Z,5.91
2023-02-13T01:18:36.052Z,5.99
2023-02-13T01:22:39.308Z,5.99
2023-02-13T01:26:43.892Z,5.90
2023-02-13T01:30:46.964Z,5.90
2023-02-13T01:34:50.036Z,5.87
2023-02-13T01:38:55.358Z,5.84
2023-02-13T01:42:59.791Z,5.72
2023-02-13T01:47:02.883Z,5.85
2023-02-13T01:51:09.667Z,5.77
2023-02-13T01:55:15.061Z,5.69
2023-02-13T01:59:24.408Z,5.54
2023-02-13T02:03:32.427Z,5.51
2023-02-13T02:07:42.826Z,5.48
2023-02-13T02:11:52.595Z,5.31
2023-02-13T02:15:57.751Z,5.27
2023-02-13T02:20:13.056Z,5.20
2023-02-13T02:24:39.018Z,5.23
2023-02-13T02:29:12.738Z,5.42
2023-02-13T02:33:25.154Z,5.43
2023-02-13T02:37:48.625Z,5.27
2023-02-13T02:42:05.412Z,5.29
2023-02-13T02:46:16.049Z,5.31
2023-02-13T02:50:34.110Z,5.08
2023-02-13T02:55:02.756Z,4.98
2023-02-13T02:59:42.027Z,5.19
2023-02-13T03:04:04.192Z,5.18
2023-02-13T03:08:08.869Z,5.25
2023-02-13T03:12:32.467Z,5.24
2023-02-13T03:16:52.984Z,4.96
2023-02-13T03:21:24.976Z,5.19
2023-02-13T03:25:36.695Z,5.16
2023-02-13T03:30:04.742Z,5.12
2023-02-13T03:34:11.897Z,5.08
2023-02-13T03:38:21.378Z,4.88
2023-02-13T03:42:32.586Z,4.89
2023-02-13T03:46:39.473Z,4.69
2023-02-13T03:50:45.321Z,4.49
2023-02-13T03:55:11.551Z,4.41
2023-02-13T03:59:23.434Z,4.24
2023-02-13T04:03:30.580Z,4.16
2023-02-13T04:07:33.713Z,4.08
2023-02-13T04:11:41.822Z,4.32
2023-02-13T04:15:51.781Z,4.14
2023-02-13T04:19:55.641Z,4.07
2023-02-13T04:23:58.689Z,4.04
2023-02-13T04:28:01.816Z,4.05
2023-02-13T04:32:06.415Z,3.80
2023-02-13T04:36:09.796Z,3.79
2023-02-13T04:40:13.359Z,3.67
2023-02-13T04:44:16.375Z,3.54
2023-02-13T04:48:20.759Z,3.40
2023-02-13T04:52:23.775Z,3.34
2023-02-13T04:56:26.900Z,3.23
2023-02-13T05:00:30.308Z,3.04
2023-02-13T05:04:34.785Z,2.94
2023-02-13T05:08:37.839Z,2.84
2023-02-13T05:12:40.883Z,2.78
2023-02-13T05:16:44.206Z,2.58
2023-02-13T05:21:08.627Z,2.46
2023-02-13T05:25:11.722Z,2.65
2023-02-13T05:29:20.782Z,2.49
2023-02-13T05:33:23.832Z,2.97
2023-02-13T05:37:28.187Z,2.94
2023-02-13T05:41:31.397Z,2.96
2023-02-13T05:45:34.499Z,3.02
2023-02-13T05:49:37.515Z,3.19
2023-02-13T05:53:41.906Z,3.30
2023-02-13T05:57:44.964Z,3.06
2023-02-13T06:01:48.209Z,3.08
2023-02-13T06:05:51.313Z,3.00
2023-02-13T06:09:55.659Z,2.84
2023-02-13T06:13:58.803Z,2.74
2023-02-13T06:18:02.217Z,2.68
2023-02-13T06:22:05.247Z,2.96
2023-02-13T06:26:10.695Z,3.18
2023-02-13T06:30:14.751Z,3.19
2023-02-13T06:34:17.741Z,3.29
2023-02-13T06:38:21.614Z,3.04
2023-02-13T06:42:26.032Z,3.15
2023-02-13T06:46:29.112Z,3.20
2023-02-13T06:50:32.201Z,3.30
2023-02-13T06:54:46.686Z,3.13
2023-02-13T06:58:52.210Z,3.41
2023-02-13T07:02:55.442Z,3.52
2023-02-13T07:06:58.837Z,3.91
2023-02-13T07:11:01.917Z,3.97
2023-02-13T07:15:08.159Z,3.93
2023-02-13T07:19:11.325Z,4.07
2023-02-13T07:23:14.341Z,4.09
2023-02-13T07:27:17.458Z,4.48
2023-02-13T07:31:21.926Z,5.00
2023-02-13T07:35:25.031Z,5.41
2023-02-13T07:39:28.068Z,5.75
2023-02-13T07:43:31.332Z,5.93
2023-02-13T07:47:36.080Z,6.28
2023-02-13T07:51:39.142Z,6.69
2023-02-13T07:55:42.130Z,7.03
2023-02-13T07:59:45.279Z,7.07
2023-02-13T08:03:52.500Z,7.04
2023-02-13T08:07:55.805Z,7.63
2023-02-13T08:11:59.386Z,7.89
2023-02-13T08:16:02.363Z,8.14
2023-02-13T08:20:08.987Z,8.50
2023-02-13T08:24:12.337Z,8.57
2023-02-13T08:28:15.410Z,8.80
2023-02-13T08:32:18.684Z,8.78
2023-02-13T08:36:23.132Z,9.03
2023-02-13T08:40:26.174Z,9.15
2023-02-13T08:44:29.210Z,9.32
2023-02-13T08:48:32.561Z,9.40
2023-02-13T08:52:37.122Z,9.68
2023-02-13T08:56:40.138Z,9.04
2023-02-13T09:00:43.165Z,9.70
2023-02-13T09:04:46.172Z,10.36
2023-02-13T09:08:50.560Z,10.00
2023-02-13T09:12:54.077Z,10.58
2023-02-13T09:16:57.169Z,10.18
2023-02-13T09:21:01.753Z,9.94
2023-02-13T09:25:07.021Z,10.84
2023-02-13T09:29:10.077Z,11.08
2023-02-13T09:33:13.151Z,10.91
2023-02-13T09:37:16.216Z,11.02
2023-02-13T09:41:24.411Z,11.58
2023-02-13T09:45:27.468Z,11.66
2023-02-13T09:49:33.396Z,12.02
2023-02-13T09:53:38.387Z,11.95
2023-02-13T09:57:47.790Z,12.49
2023-02-13T10:01:54.787Z,11.58
2023-02-13T10:06:04.702Z,12.69
2023-02-13T10:10:20.161Z,12.81
2023-02-13T10:14:28.334Z,13.17
2023-02-13T10:18:44.337Z,12.11
2023-02-13T10:22:52.741Z,11.50
2023-02-13T10:26:57.885Z,12.99
2023-02-13T10:31:06.693Z,13.40
2023-02-13T10:35:20.895Z,14.19
2023-02-13T10:39:25.688Z,12.93
2023-02-13T10:43:31.449Z,12.35
2023-02-13T10:48:00.628Z,12.83
2023-02-13T10:52:15.477Z,12.55
2023-02-13T10:56:33.119Z,13.95
2023-02-13T11:00:43.266Z,12.95
2023-02-13T11:04:48.346Z,13.39
2023-02-13T11:08:51.446Z,15.20
2023-02-13T11:12:55.482Z,13.09
2023-02-13T11:17:01.068Z,13.37
2023-02-13T11:21:09.582Z,14.67
2023-02-13T11:25:24.318Z,15.45
2023-02-13T11:29:29.717Z,14.85
2023-02-13T11:33:32.727Z,14.49
2023-02-13T11:37:37.080Z,14.91
2023-02-13T11:41:43.061Z,14.90
2023-02-13T11:45:46.157Z,15.24
2023-02-13T11:49:49.187Z,15.22
2023-02-13T11:53:54.599Z,15.84
2023-02-13T11:57:59.100Z,14.62
2023-02-13T12:02:15.654Z,14.33
2023-02-13T12:06:20.928Z,16.20
2023-02-13T12:10:27.678Z,14.24
2023-02-13T12:14:38.151Z,16.10
2023-02-13T12:18:45.329Z,15.81
2023-02-13T12:23:03.726Z,16.04
2023-02-13T12:27:17.105Z,16.39
2023-02-13T12:31:42.190Z,16.36
2023-02-13T12:35:53.328Z,16.46
2023-02-13T12:40:13.481Z,16.24
2023-02-13T12:44:37.841Z,17.06
2023-02-13T12:48:49.589Z,17.03
2023-02-13T12:53:14.068Z,17.33
2023-02-13T12:57:28.853Z,17.37
2023-02-13T13:01:54.990Z,17.29
2023-02-13T13:06:12.046Z,17.05
2023-02-13T13:10:38.946Z,16.87
2023-02-13T13:14:50.744Z,18.47
2023-02-13T13:19:09.505Z,18.17
2023-02-13T13:23:17.135Z,17.67
2023-02-13T13:27:24.982Z,16.67
2023-02-13T13:31:29.412Z,18.39
2023-02-13T13:35:35.781Z,16.82
2023-02-13T13:39:49.139Z,17.99
2023-02-13T13:44:09.133Z,17.31
2023-02-13T13:48:47.981Z,17.55
2023-02-13T13:53:10.588Z,17.38
2023-02-13T13:57:14.289Z,18.34
2023-02-13T14:01:25.559Z,18.50
2023-02-13T14:05:31.847Z,17.38
2023-02-13T14:09:41.583Z,17.37
2023-02-13T14:13:46.028Z,16.70
2023-02-13T14:17:53.519Z,18.01
2023-02-13T14:22:16.996Z,18.73
2023-02-13T14:26:30.861Z,18.15
2023-02-13T14:30:36.778Z,17.73
2023-02-13T14:34:41.162Z,18.13
2023-02-13T14:38:44.489Z,18.83
2023-02-13T14:42:55.072Z,17.93
2023-02-13T14:47:00.877Z,16.61
2023-02-13T14:51:05.396Z,18.23
2023-02-13T14:55:15.828Z,18.45
2023-02-13T14:59:23.967Z,17.80
2023-02-13T15:03:30.769Z,18.41
2023-02-13T15:07:37.938Z,19.01
2023-02-13T15:11:43.212Z,18.65
2023-02-13T15:15:53.375Z,17.73
2023-02-13T15:20:00.290Z,17.35
2023-02-13T15:24:03.801Z,17.59
2023-02-13T15:28:09.532Z,18.15
2023-02-13T15:32:21.261Z,17.85
2023-02-13T15:36:26.517Z,17.31
2023-02-13T15:40:32.070Z,17.44
2023-02-13T15:44:38.137Z,17.28
2023-02-13T15:48:44.484Z,16.89
2023-02-13T15:52:48.625Z,17.37
2023-02-13T15:56:53.227Z,17.92
2023-02-13T16:00:57.335Z,17.20
2023-02-13T16:05:03.408Z,16.21
2023-02-13T16:09:07.074Z,16.48
2023-02-13T16:13:18.789Z,15.52
2023-02-13T16:17:29.106Z,15.84
2023-02-13T16:21:35.970Z,15.77
2023-02-13T16:25:40.775Z,15.34
2023-02-13T16:29:55.896Z,14.97
2023-02-13T16:33:59.003Z,14.23
2023-02-13T16:38:04.201Z,12.90
2023-02-13T16:42:19.159Z,12.96
2023-02-13T16:46:29.855Z,12.00
2023-02-13T16:50:33.093Z,11.60
2023-02-13T16:54:40.645Z,11.35
2023-02-13T16:58:43.811Z,11.01
2023-02-13T17:02:47.679Z,10.81
2023-02-13T17:06:55.562Z,10.70
2023-02-13T17:11:08.720Z,10.46
2023-02-13T17:15:13.545Z,10.38
2023-02-13T17:19:16.632Z,10.19
2023-02-13T17:23:23.285Z,10.00
2023-02-13T17:27:27.805Z,9.81
2023-02-13T17:31:30.985Z,9.25
2023-02-13T17:35:35.234Z,9.17
2023-02-13T17:39:39.153Z,8.78
2023-02-13T17:43:43.594Z,8.61
2023-02-13T17:47:46.742Z,8.46
2023-02-13T17:51:49.792Z,8.30
2023-02-13T17:55:53.285Z,8.10
2023-02-13T17:59:59.254Z,7.92
2023-02-13T18:04:02.366Z,7.73
2023-02-13T18:08:06.055Z,7.58
2023-02-13T18:12:13.245Z,7.41
2023-02-13T18:16:18.041Z,7.42
2023-02-13T18:20:22.397Z,7.33
2023-02-13T18:24:30.341Z,7.25
2023-02-13T18:28:33.775Z,7.22
2023-02-13T18:32:38.190Z,6.96
2023-02-13T18:36:41.244Z,6.88
2023-02-13T18:40:44.317Z,6.84
2023-02-13T18:44:47.428Z,6.72
2023-02-13T18:48:51.977Z,6.61
2023-02-13T18:52:55.023Z,6.46
2023-02-13T18:56:58.121Z,6.29
2023-02-13T19:01:06.897Z,6.15
2023-02-13T19:05:11.786Z,6.13
2023-02-13T19:09:14.843Z,6.03
2023-02-13T19:13:17.840Z,5.99
2023-02-13T19:17:21.130Z,5.90
2023-02-13T19:21:27.322Z,5.86
2023-02-13T19:25:30.402Z,5.76
2023-02-13T19:29:33.447Z,5.76
2023-02-13T19:33:37.482Z,5.82
2023-02-13T19:37:44.290Z,5.64
2023-02-13T19:41:47.538Z,5.61
2023-02-13T19:45:50.787Z,5.48
2023-02-13T19:49:53.832Z,5.47
2023-02-13T19:53:59.238Z,5.54
2023-02-13T19:58:02.320Z,5.63
2023-02-13T20:02:05.382Z,5.49
2023-02-13T20:06:11.248Z,5.30
2023-02-13T20:10:15.657Z,5.21
2023-02-13T20:14:18.695Z,5.15
2023-02-13T20:18:22.051Z,5.14
2023-02-13T20:22:25.101Z,5.15
2023-02-13T20:26:29.787Z,5.11
2023-02-13T20:30:33.010Z,5.02
2023-02-13T20:34:44.331Z,4.93
2023-02-13T20:39:01.163Z,4.76
2023-02-13T20:43:05.608Z,4.77
2023-02-13T20:47:08.692Z,4.92
2023-02-13T20:51:14.496Z,5.22
2023-02-13T20:55:17.862Z,5.49
2023-02-13T20:59:22.271Z,5.56
2023-02-13T21:03:25.629Z,5.65
2023-02-13T21:07:31.650Z,5.68
2023-02-13T21:11:35.433Z,5.69
2023-02-13T21:15:40.164Z,5.35
2023-02-13T21:19:43.176Z,5.21
2023-02-13T21:23:46.258Z,5.30
2023-02-13T21:27:49.571Z,5.36
2023-02-13T21:31:53.993Z,5.41
2023-02-13T21:36:04.694Z,5.36
2023-02-13T21:40:09.132Z,4.93
2023-02-13T21:44:14.230Z,4.87
2023-02-13T21:48:18.984Z,4.86
2023-02-13T21:52:22.018Z,5.00
2023-02-13T21:56:26.820Z,4.81
2023-02-13T22:00:29.908Z,5.19
2023-02-13T22:04:34.340Z,5.28
2023-02-13T22:08:37.372Z,5.21
2023-02-13T22:12:40.388Z,4.94
2023-02-13T22:16:44.059Z,5.00
2023-02-13T22:20:48.591Z,5.05
2023-02-13T22:24:51.614Z,5.02
2023-02-13T22:28:56.557Z,4.77
2023-02-13T22:32:59.696Z,4.43
2023-02-13T22:37:04.317Z,4.30
2023-02-13T22:41:08.587Z,4.19
2023-02-13T22:45:11.606Z,4.07
2023-02-13T22:49:14.615Z,3.96
2023-02-13T22:53:18.991Z,3.78
2023-02-13T22:57:22.017Z,3.71
2023-02-13T23:01:26.698Z,4.27
2023-02-13T23:05:29.712Z,4.52
2023-02-13T23:09:34.093Z,4.86
2023-02-13T23:13:37.151Z,4.87
2023-02-13T23:17:57.824Z,4.75
2023-02-13T23:22:01.163Z,4.72
2023-02-13T23:26:07.032Z,4.54
2023-02-13T23:30:11.949Z,4.40
2023-02-13T23:34:15.010Z,4.27
2023-02-13T23:38:18.026Z,4.32
2023-02-13T23:42:22.497Z,4.33
2023-02-13T23:46:25.579Z,4.38
2023-02-13T23:50:28.689Z,4.35
2023-02-13T23:54:31.767Z,4.28
2023-02-13T23:58:36.274Z,3.96
